Yorktown, Virginia
Current Conditions -  °F | °C
As of 3:54 PM on Friday 24 Oct 2014 (Local Time) from KPHF Reporting Station
Clear Clear  
Wind Chill: 71°   Ceiling: Unl
Heat Index: 71°   Visibility: 10mi
Dew Point: 45°   Wind: 13mph
Humidity: 39%   Direction: 310°NW
Pressure: 29.91"   Gusts: NA
Location:  37.24°N, 76.51°W
Report Text: KPHF 241954Z 31011KT 10SM CLR 22/07 A2991 RMK AO2 RAE1859 SLP129 P0000 T02170072
Loading
Personal Weather Stations






























Interactive Weather Map
Tropical Storm Tracking
New forecast layout! Learn more

10-Day Weather Forecast

Advertisements
Track Severe Weather on mobile